This is the latest recevied weather packets stored in our database for station/object K7SPS-10. If no packets are shown the sender has not sent any weather packets the latest 10 day(s).
| Time | Temp. | Humidity | Pressure | Rain* | Wind** | Luminosity | Snow |
|---|---|---|---|---|---|---|---|
| 1777619685 | 7.78° C | 75% | 1019.8 hPa | 0 mm | - | 0 W/m² | - |
| 1777619379 | 8.33° C | 74% | 1019.9 hPa | 0 mm | - | 0 W/m² | - |
| 1777619079 | 8.33° C | 73% | 1019.4 hPa | 0 mm | - | 0 W/m² | - |
| 1777618774 | 7.22° C | 75% | 1019.6 hPa | 0 mm | - | 0 W/m² | - |
| 1777618469 | 7.78° C | 72% | 1019.5 hPa | 0 mm | - | 0 W/m² | - |
| 1777618166 | 8.33° C | 71% | 1019.6 hPa | 0 mm | - | 0 W/m² | - |
| 1777617863 | 8.33° C | 70% | 1019.6 hPa | 0 mm | - | 0 W/m² | - |
| 1777617562 | 8.33° C | 70% | 1019.4 hPa | 0 mm | - | 0 W/m² | - |
| 1777617260 | 8.33° C | 69% | 1019.4 hPa | 0 mm | - | 0 W/m² | - |
| 1777616957 | 8.89° C | 70% | 1019.5 hPa | 0 mm | - | 0 W/m² | - |
| 1777616652 | 8.33° C | 70% | 1019.4 hPa | 0 mm | - | 0 W/m² | - |
| 1777616347 | 8.33° C | 70% | 1019.3 hPa | 0 mm | - | 0 W/m² | - |
| 1777616044 | 8.89° C | 69% | 1019.4 hPa | 0 mm | - | 0 W/m² | - |
| 1777615741 | 8.89° C | 68% | 1019.4 hPa | 0 mm | - | 0 W/m² | - |
| 1777615438 | 9.44° C | 67% | 1019.1 hPa | 0 mm | - | 0 W/m² | - |
| 1777615137 | 8.89° C | 68% | 1019.3 hPa | 0 mm | - | 0 W/m² | - |
| 1777614832 | 8.89° C | 68% | 1019.3 hPa | 0 mm | - | 0 W/m² | - |
| 1777614530 | 9.44° C | 66% | 1019.2 hPa | 0 mm | - | 0 W/m² | - |
| 1777614225 | 8.89° C | 68% | 1019.2 hPa | 0 mm | - | 0 W/m² | - |
| 1777613920 | 9.44° C | 67% | 1019 hPa | 0 mm | - | 0 W/m² | - |
| 1777613617 | 9.44° C | 69% | 1018.9 hPa | 0 mm | - | 0 W/m² | - |
| 1777613314 | 9.44° C | 66% | 1018.9 hPa | 0 mm | - | 0 W/m² | - |
| 1777613011 | 10.56° C | 65% | 1018.5 hPa | 0 mm | - | 0 W/m² | - |
| 1777612707 | 11.11° C | 64% | 1018.6 hPa | 0 mm | - | 0 W/m² | - |
| 1777612403 | 11.11° C | 61% | 1018.9 hPa | 0 mm | - | 0 W/m² | - |
* Rain latest hour (hover to see other rain measurements)
** Current wind speed in m/s (hover to see current wind gust speed)